Time;durP1;ratioP1;P1;durP2;ratioP2;P2;SDS_P1;SDS_P2;PMS_P1;PMS_P2;Temp;Humidity;BMP_temperature;BMP_pressure;BME280_temperature;BME280_humidity;BME280_pressure;Samples;Min_cycle;Max_cycle;Signal;HPM_P1;HPM_P2
2022/04/09 00:00:24;;;;;;;3.90;0.40;;;4.20;80.00;;;;;;5094249;28;20496;-71
2022/04/09 00:02:50;;;;;;;0.82;0.30;;;4.20;80.10;;;;;;5113344;28;20058;-71
2022/04/09 00:05:16;;;;;;;1.02;0.40;;;4.20;80.20;;;;;;5112704;28;20047;-71
2022/04/09 00:07:42;;;;;;;2.03;0.63;;;4.20;80.10;;;;;;5094485;28;20040;-71
2022/04/09 00:10:10;;;;;;;2.30;0.50;;;4.30;80.10;;;;;;5112790;28;20393;-71
2022/04/09 00:12:37;;;;;;;0.65;0.30;;;4.30;80.00;;;;;;5113000;28;20122;-71
2022/04/09 00:15:04;;;;;;;1.75;0.30;;;4.30;80.00;;;;;;5112961;28;20446;-71
2022/04/09 00:17:36;;;;;;;1.42;0.32;;;4.30;80.00;;;;;;5113026;28;20095;-71
2022/04/09 00:20:02;;;;;;;0.28;0.20;;;4.30;80.00;;;;;;5112851;28;20039;-71
2022/04/09 00:22:28;;;;;;;0.45;0.22;;;4.20;80.00;;;;;;5112750;28;20043;-71
2022/04/09 00:24:53;;;;;;;1.75;0.47;;;4.20;80.00;;;;;;5112879;28;20051;-71
2022/04/09 00:27:19;;;;;;;1.92;0.50;;;4.20;80.10;;;;;;5112463;28;20532;-71
2022/04/09 00:29:45;;;;;;;1.80;0.45;;;4.20;80.20;;;;;;5112647;28;20051;-71
2022/04/09 00:32:10;;;;;;;0.50;0.28;;;4.20;80.10;;;;;;5093908;28;20043;-71
2022/04/09 00:34:36;;;;;;;1.70;0.40;;;4.20;80.10;;;;;;5093149;28;20083;-70
2022/04/09 00:37:02;;;;;;;1.08;0.30;;;4.20;80.10;;;;;;5112460;28;20039;-71
2022/04/09 00:39:28;;;;;;;1.08;0.43;;;4.20;80.10;;;;;;5094191;28;20047;-71
2022/04/09 00:41:53;;;;;;;2.22;0.47;;;4.20;80.20;;;;;;5112457;28;20028;-71
2022/04/09 00:44:21;;;;;;;1.23;0.50;;;4.20;80.20;;;;;;5092722;28;20478;-71
2022/04/09 00:46:47;;;;;;;0.20;0.13;;;4.20;80.30;;;;;;5092376;28;20032;-71
2022/04/09 00:49:14;;;;;;;0.38;0.30;;;4.20;80.30;;;;;;5112206;28;20031;-71
2022/04/09 00:51:41;;;;;;;0.98;0.38;;;4.10;80.30;;;;;;5112777;28;20055;-71
2022/04/09 00:54:10;;;;;;;1.25;0.50;;;4.20;80.40;;;;;;5112178;28;20074;-71
2022/04/09 00:56:37;;;;;;;1.88;0.40;;;4.10;80.50;;;;;;5112392;28;20436;-71
2022/04/09 00:59:06;;;;;;;1.00;0.38;;;4.10;80.50;;;;;;5108853;28;20043;-70
2022/04/09 01:01:34;;;;;;;0.90;0.30;;;4.20;80.50;;;;;;5112643;28;20370;-71
2022/04/09 01:04:06;;;;;;;0.88;0.30;;;4.10;80.50;;;;;;5093837;28;20043;-70
2022/04/09 01:06:32;;;;;;;;;;;4.10;80.50;;;;;;5113248;28;20077;-71
2022/04/09 01:08:58;;;;;;;0.75;0.20;;;4.10;80.50;;;;;;5112045;28;19980;-71
2022/04/09 01:11:24;;;;;;;0.75;0.30;;;4.10;80.40;;;;;;5093910;28;20031;-71
2022/04/09 01:13:51;;;;;;;2.30;0.30;;;4.00;80.40;;;;;;5112097;28;20078;-70
2022/04/09 01:16:17;;;;;;;2.40;0.40;;;4.10;80.50;;;;;;5112384;28;20046;-70
2022/04/09 01:18:43;;;;;;;2.38;0.50;;;4.10;80.50;;;;;;5114317;28;20427;-71
2022/04/09 01:21:09;;;;;;;3.00;0.65;;;4.10;80.60;;;;;;5115526;28;20120;-71
2022/04/09 01:23:35;;;;;;;0.52;0.20;;;4.10;80.60;;;;;;5115535;28;20401;-71
2022/04/09 01:26:04;;;;;;;1.38;0.40;;;4.00;80.60;;;;;;5115291;28;20067;-71
2022/04/09 01:28:31;;;;;;;1.80;0.30;;;4.00;80.60;;;;;;5096934;28;20549;-71
2022/04/09 01:30:57;;;;;;;2.28;0.30;;;4.00;80.70;;;;;;5115248;28;20040;-71
2022/04/09 01:33:23;;;;;;;1.33;0.38;;;4.00;80.70;;;;;;5115006;28;20400;-71
2022/04/09 01:35:50;;;;;;;2.70;0.40;;;4.00;80.80;;;;;;5115441;28;20043;-71
2022/04/09 01:38:16;;;;;;;1.38;0.50;;;4.00;80.80;;;;;;5115714;28;20096;-71
2022/04/09 01:40:42;;;;;;;0.75;0.40;;;4.00;80.80;;;;;;5095752;28;20508;-70
2022/04/09 01:43:08;;;;;;;0.30;0.22;;;4.00;80.80;;;;;;5115254;28;20035;-71
2022/04/09 01:45:36;;;;;;;0.63;0.22;;;4.00;80.90;;;;;;5096606;28;20103;-71
2022/04/09 01:48:02;;;;;;;1.65;0.40;;;3.90;80.90;;;;;;5115216;28;20036;-71
2022/04/09 01:50:29;;;;;;;0.45;0.30;;;4.00;81.00;;;;;;5097087;28;20123;-71
2022/04/09 01:52:56;;;;;;;2.70;0.50;;;4.00;81.10;;;;;;5115034;28;20091;-71
2022/04/09 01:55:22;;;;;;;1.35;0.40;;;4.00;81.00;;;;;;5115117;28;20050;-71
2022/04/09 01:57:48;;;;;;;0.40;0.13;;;4.00;81.60;;;;;;5115298;28;20532;-71
2022/04/09 02:00:16;;;;;;;1.50;0.35;;;4.00;81.00;;;;;;5114907;28;20046;-71
2022/04/09 02:02:42;;;;;;;0.98;0.40;;;4.00;81.00;;;;;;5114664;28;20040;-71
2022/04/09 02:05:11;;;;;;;0.47;0.20;;;4.00;81.00;;;;;;5096279;28;20040;-71
2022/04/09 02:07:38;;;;;;;0.60;0.20;;;4.00;80.90;;;;;;5114604;28;20496;-71
2022/04/09 02:10:05;;;;;;;1.10;0.30;;;4.10;81.00;;;;;;5114705;28;20040;-71
2022/04/09 02:12:32;;;;;;;1.60;0.40;;;4.10;81.00;;;;;;5114400;28;20039;-71
2022/04/09 02:14:58;;;;;;;0.80;0.47;;;4.20;81.00;;;;;;5114550;28;20051;-71
2022/04/09 02:17:23;;;;;;;0.40;0.30;;;4.20;80.70;;;;;;5096280;28;20492;-71
2022/04/09 02:19:49;;;;;;;1.00;0.30;;;4.20;80.60;;;;;;5114783;28;20056;-71
2022/04/09 02:22:15;;;;;;;0.82;0.40;;;4.30;80.70;;;;;;5115072;28;20047;-71
2022/04/09 02:24:41;;;;;;;1.80;0.50;;;4.40;80.80;;;;;;5114664;28;20043;-71
2022/04/09 02:27:07;;;;;;;1.15;0.40;;;4.40;80.60;;;;;;5114340;28;20056;-71
2022/04/09 02:29:32;;;;;;;3.05;0.50;;;4.50;80.50;;;;;;5113079;28;20036;-71
2022/04/09 02:32:01;;;;;;;3.58;0.50;;;4.60;80.40;;;;;;5114288;28;20031;-71
2022/04/09 02:34:27;;;;;;;0.43;0.30;;;4.60;80.30;;;;;;5114055;28;20048;-72
2022/04/09 02:36:52;;;;;;;1.15;0.45;;;4.60;80.20;;;;;;5114232;28;20097;-71
2022/04/09 02:39:21;;;;;;;1.13;0.30;;;4.60;80.30;;;;;;5094818;28;20105;-72
2022/04/09 02:41:50;;;;;;;0.55;0.20;;;4.60;80.30;;;;;;5114793;28;20101;-71
2022/04/09 02:44:17;;;;;;;0.55;0.30;;;4.70;80.30;;;;;;5095879;28;20039;-71
2022/04/09 02:46:44;;;;;;;0.63;0.30;;;4.60;80.30;;;;;;5114166;28;20079;-71
2022/04/09 02:49:10;;;;;;;1.75;0.30;;;4.60;80.40;;;;;;5095963;28;20354;-71
2022/04/09 02:51:36;;;;;;;0.55;0.30;;;4.60;80.40;;;;;;5094713;28;20070;-71
2022/04/09 02:54:02;;;;;;;0.57;0.30;;;4.60;80.50;;;;;;5113988;28;20031;-71
2022/04/09 02:56:28;;;;;;;0.85;0.40;;;4.60;80.60;;;;;;5114009;28;20043;-71
2022/04/09 02:58:54;;;;;;;0.90;0.30;;;4.50;80.60;;;;;;5114444;28;20092;-72
2022/04/09 03:01:19;;;;;;;1.85;0.30;;;4.50;80.70;;;;;;5114010;28;20035;-71
2022/04/09 03:03:45;;;;;;;0.47;0.30;;;4.40;80.80;;;;;;5114238;28;20034;-71
2022/04/09 03:06:11;;;;;;;1.10;0.40;;;4.50;81.00;;;;;;5095336;28;20401;-71
2022/04/09 03:08:36;;;;;;;0.75;0.32;;;4.50;81.10;;;;;;5113822;28;20493;-71
2022/04/09 03:11:02;;;;;;;2.78;0.50;;;4.40;81.10;;;;;;5113722;28;20039;-71
2022/04/09 03:13:28;;;;;;;1.38;0.30;;;4.40;81.20;;;;;;5113498;28;20035;-71
2022/04/09 03:15:53;;;;;;;0.98;0.43;;;4.30;81.30;;;;;;5113585;28;20047;-71
2022/04/09 03:18:19;;;;;;;0.70;0.30;;;4.30;81.40;;;;;;5095589;28;20042;-71
2022/04/09 03:20:45;;;;;;;0.95;0.30;;;4.30;81.50;;;;;;5113252;28;20108;-71
2022/04/09 03:23:11;;;;;;;0.85;0.20;;;4.20;81.60;;;;;;5113314;28;20044;-71
2022/04/09 03:25:37;;;;;;;0.90;0.40;;;4.30;81.70;;;;;;5113312;28;20119;-71
2022/04/09 03:28:03;;;;;;;2.75;0.38;;;4.20;81.70;;;;;;5095118;28;20066;-71
2022/04/09 03:30:29;;;;;;;1.60;0.30;;;4.20;81.80;;;;;;5114009;28;20044;-71
2022/04/09 03:32:55;;;;;;;0.32;0.13;;;4.10;81.90;;;;;;5113206;28;20092;-71
2022/04/09 03:35:21;;;;;;;1.23;0.32;;;4.10;81.90;;;;;;5113412;28;20043;-71
2022/04/09 03:37:47;;;;;;;0.90;0.30;;;4.20;81.90;;;;;;5095074;28;20119;-71
2022/04/09 03:40:13;;;;;;;0.63;0.28;;;4.20;81.90;;;;;;5113331;28;20563;-71
2022/04/09 03:42:39;;;;;;;0.60;0.20;;;4.10;81.80;;;;;;5113005;28;20497;-71
2022/04/09 03:45:05;;;;;;;1.55;0.15;;;4.20;81.80;;;;;;5113590;28;20051;-71
2022/04/09 03:47:33;;;;;;;1.13;0.20;;;4.10;81.80;;;;;;5094819;28;20540;-71
2022/04/09 03:50:01;;;;;;;0.57;0.20;;;4.10;81.80;;;;;;5113482;28;20120;-71
2022/04/09 03:52:27;;;;;;;0.57;0.10;;;4.10;81.90;;;;;;5113378;28;20042;-71
2022/04/09 03:54:52;;;;;;;0.73;0.30;;;4.10;82.00;;;;;;5113085;28;20393;-71
2022/04/09 03:57:19;;;;;;;0.93;0.15;;;4.10;81.90;;;;;;5112992;28;20043;-71
2022/04/09 03:59:45;;;;;;;1.55;0.17;;;4.10;82.00;;;;;;5113490;28;20046;-71
2022/04/09 04:02:10;;;;;;;0.68;0.20;;;4.10;82.10;;;;;;5113088;28;20477;-71
2022/04/09 04:04:37;;;;;;;1.17;0.40;;;4.10;82.20;;;;;;5113189;28;20550;-72
2022/04/09 04:07:04;;;;;;;0.43;0.20;;;4.10;82.20;;;;;;5113335;28;20066;-71
2022/04/09 04:09:30;;;;;;;1.33;0.25;;;4.10;82.20;;;;;;5093926;28;20517;-71
2022/04/09 04:11:55;;;;;;;0.50;0.20;;;4.00;82.20;;;;;;5094884;28;20036;-71
2022/04/09 04:14:21;;;;;;;0.20;0.20;;;4.00;82.30;;;;;;5113008;28;20092;-71
2022/04/09 04:16:47;;;;;;;1.38;0.20;;;4.00;82.30;;;;;;5113051;28;20170;-71
2022/04/09 04:19:13;;;;;;;1.52;0.30;;;4.00;82.30;;;;;;5113292;28;20085;-71
2022/04/09 04:21:39;;;;;;;3.88;0.30;;;4.00;82.20;;;;;;5113471;28;20039;-71
2022/04/09 04:24:05;;;;;;;1.48;0.40;;;4.10;82.30;;;;;;5113004;28;20079;-71
2022/04/09 04:26:31;;;;;;;2.17;0.47;;;4.20;82.20;;;;;;5113486;28;20044;-71
2022/04/09 04:28:57;;;;;;;1.25;0.50;;;4.20;82.00;;;;;;5113290;28;20032;-71
2022/04/09 04:31:23;;;;;;;1.85;0.50;;;4.20;81.90;;;;;;5113605;28;20040;-70
2022/04/09 04:33:49;;;;;;;0.55;0.25;;;4.30;81.90;;;;;;5112815;28;20039;-71
2022/04/09 04:36:14;;;;;;;1.48;0.30;;;4.30;81.80;;;;;;5093123;28;20032;-71
2022/04/09 04:38:40;;;;;;;2.33;0.47;;;4.40;81.80;;;;;;5112982;28;20047;-71
2022/04/09 04:41:07;;;;;;;3.15;0.40;;;4.30;81.70;;;;;;5112699;28;20039;-71
2022/04/09 04:43:32;;;;;;;0.60;0.20;;;4.40;81.80;;;;;;5094597;28;20043;-71
2022/04/09 04:45:58;;;;;;;0.50;0.30;;;4.40;81.80;;;;;;5112758;28;20504;-71
2022/04/09 04:48:24;;;;;;;0.55;0.20;;;4.40;81.70;;;;;;5112781;28;20395;-71
2022/04/09 04:50:50;;;;;;;3.15;0.60;;;4.50;81.70;;;;;;5112393;28;20511;-72
2022/04/09 04:53:16;;;;;;;1.38;0.47;;;4.50;81.60;;;;;;5094478;28;20378;-71
2022/04/09 04:55:42;;;;;;;0.80;0.40;;;4.60;81.50;;;;;;5116372;28;20066;-72
2022/04/09 04:58:07;;;;;;;1.75;0.28;;;4.60;81.40;;;;;;5116155;28;20039;-72
2022/04/09 05:00:33;;;;;;;0.32;0.30;;;4.60;81.40;;;;;;5116239;28;20044;-72
2022/04/09 05:02:59;;;;;;;1.02;0.28;;;4.70;81.40;;;;;;5116157;28;20067;-72
2022/04/09 05:05:25;;;;;;;1.58;0.40;;;4.60;81.40;;;;;;5097441;28;20108;-72
2022/04/09 05:07:52;;;;;;;0.60;0.28;;;4.70;81.40;;;;;;5097707;28;20035;-71
2022/04/09 05:10:21;;;;;;;1.08;0.40;;;4.70;81.50;;;;;;5097568;28;20068;-71
2022/04/09 05:12:48;;;;;;;0.75;0.20;;;4.70;81.50;;;;;;5115707;28;20119;-71
2022/04/09 05:15:16;;;;;;;0.85;0.20;;;4.60;81.50;;;;;;5115816;28;20048;-71
2022/04/09 05:17:42;;;;;;;0.50;0.20;;;4.50;81.50;;;;;;5116279;28;20519;-72
2022/04/09 05:20:14;;;;;;;1.13;0.30;;;4.50;81.70;;;;;;5115873;28;20412;-71
2022/04/09 05:22:43;;;;;;;1.17;0.30;;;4.50;81.90;;;;;;5115843;28;20054;-71
2022/04/09 05:25:10;;;;;;;0.28;0.28;;;4.40;82.00;;;;;;5115889;28;20048;-72
2022/04/09 05:27:37;;;;;;;0.13;0.10;;;4.40;82.10;;;;;;5115638;28;20040;-72
2022/04/09 05:30:05;;;;;;;0.15;0.13;;;4.40;82.10;;;;;;5115670;28;20189;-71
2022/04/09 05:32:31;;;;;;;1.75;0.30;;;4.40;82.00;;;;;;5115473;28;20028;-72
2022/04/09 05:34:57;;;;;;;0.43;0.17;;;4.40;82.00;;;;;;5115271;28;20040;-72
2022/04/09 05:37:23;;;;;;;1.45;0.38;;;4.40;82.10;;;;;;5115260;28;20039;-72
2022/04/09 05:39:49;;;;;;;1.33;0.30;;;4.40;82.20;;;;;;5097811;28;20545;-71
2022/04/09 05:42:15;;;;;;;0.88;0.20;;;4.40;82.30;;;;;;5115975;28;20120;-72
2022/04/09 05:44:41;;;;;;;1.02;0.40;;;4.40;82.30;;;;;;5096961;28;20062;-72
2022/04/09 05:47:06;;;;;;;0.63;0.30;;;4.40;82.40;;;;;;5097270;28;20122;-71
2022/04/09 05:49:32;;;;;;;0.73;0.20;;;4.50;82.50;;;;;;5115464;28;20028;-71
2022/04/09 05:51:58;;;;;;;1.45;0.40;;;4.50;82.40;;;;;;5096843;28;20462;-71
2022/04/09 05:54:25;;;;;;;0.40;0.22;;;4.60;82.20;;;;;;5096947;28;20036;-72
2022/04/09 05:56:51;;;;;;;0.30;0.30;;;4.60;82.20;;;;;;5115429;28;20044;-72
2022/04/09 05:59:16;;;;;;;1.17;0.20;;;4.70;82.10;;;;;;5114983;28;20047;-72
2022/04/09 06:01:43;;;;;;;1.75;0.40;;;4.80;82.00;;;;;;5115086;28;21133;-71
2022/04/09 06:04:08;;;;;;;0.73;0.30;;;4.80;82.00;;;;;;5115037;28;20113;-71
2022/04/09 06:06:34;;;;;;;0.25;0.20;;;4.90;82.00;;;;;;5095324;28;20052;-71
2022/04/09 06:09:00;;;;;;;0.65;0.20;;;4.90;81.90;;;;;;5115633;28;20035;-72
2022/04/09 06:11:26;;;;;;;2.17;0.30;;;4.90;81.80;;;;;;5115387;28;20118;-72
2022/04/09 06:13:52;;;;;;;1.48;0.50;;;5.00;81.70;;;;;;5115000;28;20039;-72
2022/04/09 06:16:18;;;;;;;0.85;0.25;;;5.20;81.70;;;;;;5114922;28;20046;-71
2022/04/09 06:18:43;;;;;;;2.65;0.60;;;5.20;81.50;;;;;;5079128;28;20047;-72
2022/04/09 06:21:10;;;;;;;1.45;0.40;;;5.40;81.30;;;;;;5114989;28;20028;-72
2022/04/09 06:23:36;;;;;;;3.38;0.70;;;5.50;81.10;;;;;;5115012;28;20035;-72
2022/04/09 06:26:02;;;;;;;2.20;0.50;;;5.40;80.90;;;;;;5115266;28;20130;-71
2022/04/09 06:28:28;;;;;;;0.20;0.20;;;5.30;81.10;;;;;;5114769;28;20047;-70
2022/04/09 06:30:54;;;;;;;1.08;0.38;;;5.30;81.40;;;;;;5097294;28;20438;-71
2022/04/09 06:33:21;;;;;;;0.82;0.28;;;5.20;81.60;;;;;;5114754;28;20063;-72
2022/04/09 06:35:48;;;;;;;1.10;0.30;;;5.20;81.80;;;;;;5114585;28;20051;-71
2022/04/09 06:38:13;;;;;;;1.75;0.35;;;5.20;81.90;;;;;;5078741;28;20131;-71
2022/04/09 06:40:39;;;;;;;0.57;0.40;;;5.30;81.90;;;;;;5114742;28;20074;-72
2022/04/09 06:43:06;;;;;;;0.63;0.20;;;5.20;82.00;;;;;;5115040;28;20427;-72
2022/04/09 06:45:33;;;;;;;1.05;0.22;;;5.40;82.10;;;;;;5078628;28;20036;-71
2022/04/09 06:47:59;;;;;;;0.85;0.35;;;5.40;81.90;;;;;;5114571;28;20039;-72
2022/04/09 06:50:25;;;;;;;0.35;0.25;;;5.60;81.70;;;;;;5114460;28;20040;-71
2022/04/09 06:52:50;;;;;;;2.00;0.25;;;5.60;81.60;;;;;;5114531;28;20043;-71
2022/04/09 06:55:16;;;;;;;0.50;0.30;;;5.60;81.50;;;;;;5114401;28;20388;-71
2022/04/09 06:57:43;;;;;;;1.33;0.45;;;5.60;81.60;;;;;;5114421;28;20400;-72
2022/04/09 07:00:14;;;;;;;1.13;0.38;;;5.60;81.70;;;;;;5114449;28;20039;-71
2022/04/09 07:02:41;;;;;;;1.08;0.30;;;5.70;81.80;;;;;;5077772;28;20508;-71
2022/04/09 07:05:07;;;;;;;2.35;0.40;;;5.80;81.80;;;;;;5113845;28;20048;-71
2022/04/09 07:07:34;;;;;;;1.92;0.50;;;5.80;81.70;;;;;;5114394;28;20118;-72
2022/04/09 07:10:12;;;;;;;1.05;0.35;;;5.90;81.70;;;;;;5078955;28;20040;-72
2022/04/09 07:12:39;;;;;;;4.13;0.82;;;5.90;81.70;;;;;;5114479;28;20036;-71
2022/04/09 07:15:06;;;;;;;1.38;0.70;;;5.90;81.60;;;;;;5113590;28;20524;-71
2022/04/09 07:17:32;;;;;;;1.65;0.65;;;6.10;81.70;;;;;;5113366;28;20035;-71
2022/04/09 07:20:00;;;;;;;2.38;0.60;;;6.10;81.60;;;;;;5114282;28;20036;-71
2022/04/09 07:22:26;;;;;;;2.63;0.75;;;6.20;81.50;;;;;;5113774;28;20088;-71
2022/04/09 07:24:53;;;;;;;2.40;0.50;;;6.20;81.30;;;;;;5114225;28;20039;-70
2022/04/09 07:27:20;;;;;;;1.40;0.70;;;6.30;81.40;;;;;;5113882;28;20035;-72
2022/04/09 07:29:47;;;;;;;2.40;0.60;;;6.40;81.30;;;;;;5114173;28;20119;-71
2022/04/09 07:32:12;;;;;;;1.10;0.60;;;6.50;81.20;;;;;;5113829;28;20487;-72
2022/04/09 07:34:38;;;;;;;1.27;0.55;;;6.60;81.00;;;;;;5095310;28;20118;-71
2022/04/09 07:37:04;;;;;;;2.40;0.70;;;6.80;80.60;;;;;;5113707;28;20050;-71
2022/04/09 07:39:30;;;;;;;2.67;0.70;;;6.90;80.40;;;;;;5113690;28;20047;-71
2022/04/09 07:41:56;;;;;;;3.35;0.70;;;6.90;80.30;;;;;;5113964;28;20039;-71
2022/04/09 07:44:23;;;;;;;1.35;0.60;;;6.90;80.40;;;;;;5113796;28;20481;-72
2022/04/09 07:46:50;;;;;;;1.73;0.50;;;6.80;80.50;;;;;;5113516;28;20043;-71
2022/04/09 07:49:15;;;;;;;0.70;0.28;;;6.50;80.70;;;;;;5113398;28;20059;-71
2022/04/09 07:51:41;;;;;;;1.00;0.60;;;6.30;81.30;;;;;;5113419;28;20067;-71
2022/04/09 07:54:07;;;;;;;0.90;0.32;;;6.20;81.90;;;;;;5095379;28;20040;-71
2022/04/09 07:56:33;;;;;;;0.85;0.20;;;6.10;82.20;;;;;;5113333;28;20039;-71
2022/04/09 07:58:59;;;;;;;1.38;0.40;;;6.00;82.50;;;;;;5113361;28;20047;-71
2022/04/09 08:01:24;;;;;;;1.80;0.30;;;6.00;82.70;;;;;;5113498;28;20143;-72
2022/04/09 08:03:50;;;;;;;0.45;0.20;;;5.90;82.90;;;;;;5113000;28;20469;-72
2022/04/09 08:06:16;;;;;;;0.40;0.20;;;6.00;83.10;;;;;;5113381;28;20104;-71
2022/04/09 08:08:42;;;;;;;1.25;0.28;;;6.10;83.20;;;;;;5095142;28;20078;-71
2022/04/09 08:11:10;;;;;;;0.52;0.30;;;6.20;82.90;;;;;;5077065;28;20068;-71
2022/04/09 08:13:36;;;;;;;0.43;0.30;;;6.40;82.60;;;;;;5113386;28;20036;-71
2022/04/09 08:16:02;;;;;;;1.08;0.30;;;6.50;82.50;;;;;;5113240;28;20044;-72
2022/04/09 08:18:27;;;;;;;0.47;0.20;;;6.70;82.40;;;;;;5094594;28;20040;-72
2022/04/09 08:20:53;;;;;;;0.80;0.28;;;6.90;81.90;;;;;;5076835;28;20409;-71
2022/04/09 08:23:19;;;;;;;1.95;0.40;;;7.10;81.60;;;;;;5112942;28;20074;-71
2022/04/09 08:25:44;;;;;;;0.75;0.50;;;7.20;81.30;;;;;;5077903;28;20051;-71
2022/04/09 08:28:10;;;;;;;1.65;0.73;;;7.40;81.10;;;;;;5112765;28;20069;-72
2022/04/09 08:30:39;;;;;;;1.40;0.43;;;7.60;80.80;;;;;;5112932;28;20173;-71
2022/04/09 08:33:07;;;;;;;1.27;0.60;;;7.70;80.50;;;;;;5112710;28;20051;-72
2022/04/09 08:35:33;;;;;;;1.48;0.40;;;7.70;80.30;;;;;;5112859;28;20040;-71
2022/04/09 08:37:58;;;;;;;1.15;0.40;;;7.80;80.30;;;;;;5112714;28;20051;-71
2022/04/09 08:40:25;;;;;;;1.73;0.50;;;7.90;80.30;;;;;;5112851;28;20092;-72
2022/04/09 08:42:53;;;;;;;0.50;0.35;;;8.10;80.80;;;;;;5112705;28;20043;-71
2022/04/09 08:45:19;;;;;;;2.22;0.57;;;8.20;80.10;;;;;;5112706;28;20048;-71
2022/04/09 08:47:45;;;;;;;2.28;0.55;;;8.10;79.90;;;;;;5113028;28;20503;-72
2022/04/09 08:50:12;;;;;;;1.15;0.40;;;8.20;80.00;;;;;;5112776;28;20031;-71
2022/04/09 08:52:40;;;;;;;1.30;0.47;;;8.20;80.00;;;;;;5112884;28;20473;-71
2022/04/09 08:55:07;;;;;;;0.90;0.60;;;8.20;80.10;;;;;;5112524;28;20048;-71
2022/04/09 08:57:35;;;;;;;1.58;0.65;;;8.00;80.40;;;;;;5112765;28;20114;-71
2022/04/09 09:00:07;;;;;;;2.05;0.80;;;7.80;80.70;;;;;;5112266;28;20051;-71
2022/04/09 09:02:36;;;;;;;0.95;0.45;;;7.80;81.20;;;;;;5112435;28;20071;-71
2022/04/09 09:05:02;;;;;;;1.10;0.68;;;7.80;81.30;;;;;;5094671;28;20386;-71
2022/04/09 09:07:28;;;;;;;1.63;0.60;;;7.80;81.40;;;;;;5112841;28;20530;-71
2022/04/09 09:10:14;;;;;;;1.15;0.65;;;7.70;81.50;;;;;;5112244;28;20035;-71
2022/04/09 09:12:40;;;;;;;0.88;0.50;;;7.60;81.80;;;;;;5112601;28;20043;-71
2022/04/09 09:15:07;;;;;;;2.55;0.93;;;7.50;82.30;;;;;;5112211;28;20044;-71
2022/04/09 09:17:33;;;;;;;0.47;0.30;;;7.70;82.50;;;;;;5112712;28;20043;-71
2022/04/09 09:19:59;;;;;;;1.30;0.57;;;8.00;82.10;;;;;;5112453;28;20066;-71
2022/04/09 09:22:43;;;;;;;2.42;0.85;;;8.20;81.50;;;;;;5112272;28;20500;-71
2022/04/09 09:25:10;;;;;;;3.65;0.77;;;8.00;80.40;;;;;;5108236;28;20047;-70
2022/04/09 09:27:37;;;;;;;1.23;0.70;;;7.80;80.90;;;;;;5112394;28;20039;-71
2022/04/09 09:30:05;;;;;;;1.00;0.40;;;7.60;81.60;;;;;;5093991;28;20536;-71
2022/04/09 09:32:31;;;;;;;1.88;0.60;;;7.40;82.10;;;;;;5112036;28;20114;-71
2022/04/09 09:34:59;;;;;;;1.40;0.50;;;7.30;82.50;;;;;;5111949;28;20135;-71
2022/04/09 09:37:28;;;;;;;0.88;0.40;;;7.10;82.90;;;;;;5111986;28;20081;-71
2022/04/09 09:39:54;;;;;;;0.25;0.15;;;7.00;83.00;;;;;;5114174;28;20072;-71
2022/04/09 09:42:22;;;;;;;0.93;0.50;;;7.00;83.20;;;;;;5097082;28;20394;-71
2022/04/09 09:44:48;;;;;;;0.40;0.38;;;7.00;83.20;;;;;;5115429;28;20043;-71
2022/04/09 09:47:15;;;;;;;1.05;0.40;;;7.10;83.20;;;;;;5115709;28;20105;-71
2022/04/09 09:49:56;;;;;;;1.15;0.45;;;7.30;83.00;;;;;;5115387;28;20039;-71
2022/04/09 09:52:36;;;;;;;2.15;0.50;;;7.50;82.40;;;;;;5096567;28;20430;-71
2022/04/09 09:55:10;;;;;;;0.98;0.70;;;7.70;81.60;;;;;;5115111;28;20576;-70
2022/04/09 09:57:38;;;;;;;3.20;0.90;;;7.90;81.00;;;;;;5115815;28;20112;-71
2022/04/09 10:00:10;;;;;;;0.40;0.30;;;8.10;80.40;;;;;;5115704;28;20043;-71
2022/04/09 10:02:37;;;;;;;1.45;0.70;;;8.00;80.00;;;;;;5115088;28;20036;-71
2022/04/09 10:05:04;;;;;;;0.50;0.35;;;7.80;80.10;;;;;;5114843;28;20089;-71
2022/04/09 10:07:30;;;;;;;1.27;0.50;;;7.60;80.30;;;;;;5115285;28;20031;-71
2022/04/09 10:09:56;;;;;;;1.85;0.60;;;7.30;80.80;;;;;;5096875;28;20040;-71
2022/04/09 10:12:24;;;;;;;1.00;0.10;;;7.10;81.50;;;;;;5115262;28;20126;-72
2022/04/09 10:14:54;;;;;;;0.28;0.20;;;6.90;82.10;;;;;;5095665;28;20051;-71
2022/04/09 10:17:21;;;;;;;0.32;0.20;;;6.60;82.60;;;;;;5115184;28;20047;-71
2022/04/09 10:19:56;;;;;;;0.73;0.30;;;6.40;83.10;;;;;;5114900;28;20044;-71
2022/04/09 10:22:25;;;;;;;0.10;0.10;;;6.30;83.40;;;;;;5114757;28;20092;-71
2022/04/09 10:24:54;;;;;;;0.55;0.20;;;6.30;83.60;;;;;;5114637;28;20401;-71
2022/04/09 10:27:39;;;;;;;0.47;0.10;;;6.30;83.60;;;;;;5114516;28;20043;-71
2022/04/09 10:30:19;;;;;;;1.13;0.10;;;6.30;83.40;;;;;;5114548;28;20043;-71
2022/04/09 10:32:51;;;;;;;0.43;0.17;;;6.40;83.20;;;;;;5115033;28;20050;-71
2022/04/09 10:35:27;;;;;;;;;;;6.50;82.90;;;;;;5115024;28;20124;-71
2022/04/09 10:38:17;;;;;;;0.10;0.10;;;6.60;82.70;;;;;;5114615;28;19912;-71
2022/04/09 10:41:23;;;;;;;0.40;0.20;;;6.60;82.40;;;;;;5114625;28;20044;-71
2022/04/09 10:43:48;;;;;;;1.08;0.43;;;6.60;82.30;;;;;;5088143;28;20039;-71
2022/04/09 10:46:21;;;;;;;0.30;0.20;;;6.70;82.10;;;;;;5114348;28;20418;-71
2022/04/09 10:48:48;;;;;;;0.20;0.13;;;6.70;81.90;;;;;;5111223;28;20093;-71
2022/04/09 10:51:15;;;;;;;0.17;0.15;;;6.70;81.70;;;;;;5095237;28;20040;-71
2022/04/09 10:53:44;;;;;;;1.98;0.30;;;6.60;81.90;;;;;;5095275;28;20040;-71
2022/04/09 10:56:12;;;;;;;0.20;0.20;;;6.50;82.10;;;;;;5114775;28;20069;-71
2022/04/09 10:59:09;;;;;;;0.20;0.20;;;6.60;82.40;;;;;;5096433;28;20042;-71
2022/04/09 11:01:50;;;;;;;0.85;0.30;;;6.70;82.40;;;;;;5099246;28;20028;-71
2022/04/09 11:04:38;;;;;;;1.10;0.30;;;7.00;82.20;;;;;;5114108;28;20055;-71
2022/04/09 11:07:11;;;;;;;0.32;0.20;;;7.40;81.50;;;;;;5095978;28;20070;-71
2022/04/09 11:09:53;;;;;;;1.25;0.25;;;7.90;80.60;;;;;;5114375;28;20036;-71
2022/04/09 11:12:45;;;;;;;0.60;0.20;;;8.20;79.80;;;;;;5094622;28;20396;-72
2022/04/09 11:15:14;;;;;;;0.77;0.35;;;8.50;79.40;;;;;;5113681;28;20052;-71
2022/04/09 11:17:45;;;;;;;0.60;0.47;;;8.70;78.50;;;;;;5114149;28;20044;-71
2022/04/09 11:20:16;;;;;;;0.50;0.43;;;8.70;77.90;;;;;;5094907;28;20048;-71
2022/04/09 11:22:45;;;;;;;0.80;0.35;;;8.10;78.10;;;;;;5096905;28;20044;-72
2022/04/09 11:25:21;;;;;;;0.73;0.30;;;7.60;79.60;;;;;;5113656;28;20047;-71
2022/04/09 11:27:47;;;;;;;0.55;0.30;;;7.10;81.00;;;;;;5113737;28;20047;-72
2022/04/09 11:30:14;;;;;;;1.50;0.40;;;6.80;81.80;;;;;;5113574;28;20481;-73
2022/04/09 11:32:40;;;;;;;0.90;0.30;;;6.60;82.50;;;;;;5113979;28;20085;-73
2022/04/09 11:35:10;;;;;;;1.30;0.20;;;6.40;83.10;;;;;;5113530;28;20055;-73
2022/04/09 11:37:49;;;;;;;0.10;0.10;;;6.20;83.40;;;;;;5113536;28;20420;-73
2022/04/09 11:40:18;;;;;;;0.20;0.10;;;6.20;83.80;;;;;;5113982;28;20043;-72
2022/04/09 11:42:47;;;;;;;0.40;0.15;;;6.20;83.80;;;;;;5113443;28;20050;-72
2022/04/09 11:45:18;;;;;;;1.02;0.10;;;6.20;83.80;;;;;;5093859;28;20482;-72
2022/04/09 11:47:45;;;;;;;0.40;0.20;;;6.30;83.60;;;;;;5094166;28;20089;-72
2022/04/09 11:50:13;;;;;;;0.22;0.10;;;6.30;83.60;;;;;;5113370;28;20094;-73
2022/04/09 11:52:39;;;;;;;2.38;0.47;;;6.30;83.50;;;;;;5113987;28;20063;-72
2022/04/09 11:55:09;;;;;;;0.25;0.13;;;6.40;83.40;;;;;;5094871;28;20036;-72
2022/04/09 11:57:36;;;;;;;0.25;0.22;;;6.50;83.50;;;;;;5112966;28;20493;-72
2022/04/09 12:00:04;;;;;;;0.45;0.25;;;6.70;83.30;;;;;;5113149;28;20510;-72
2022/04/09 12:02:30;;;;;;;1.27;0.45;;;6.90;82.90;;;;;;5093686;28;20040;-72
2022/04/09 12:04:57;;;;;;;1.38;0.30;;;7.30;82.40;;;;;;5113514;28;20036;-72
2022/04/09 12:07:27;;;;;;;1.02;0.45;;;7.50;81.90;;;;;;5094926;28;20074;-72
2022/04/09 12:09:54;;;;;;;0.70;0.30;;;7.80;82.00;;;;;;5112871;28;20040;-72
2022/04/09 12:12:20;;;;;;;1.70;0.70;;;8.20;80.80;;;;;;5112848;28;20560;-72
2022/04/09 12:15:00;;;;;;;1.50;0.70;;;8.50;80.00;;;;;;5113016;28;20096;-72
2022/04/09 12:17:34;;;;;;;1.38;0.57;;;8.50;79.10;;;;;;5113187;28;20473;-72
2022/04/09 12:20:34;;;;;;;0.80;0.50;;;8.50;79.10;;;;;;5112764;28;20409;-72
2022/04/09 12:23:00;;;;;;;0.68;0.30;;;8.40;79.20;;;;;;5112958;28;20501;-73
2022/04/09 12:25:35;;;;;;;1.10;0.50;;;8.30;79.40;;;;;;5112955;28;20044;-72
2022/04/09 12:28:01;;;;;;;0.70;0.30;;;8.30;79.50;;;;;;5112735;28;20044;-72
2022/04/09 12:30:42;;;;;;;1.17;0.30;;;8.20;79.60;;;;;;5112998;28;20493;-72
2022/04/09 12:33:10;;;;;;;0.47;0.40;;;8.30;80.00;;;;;;5112756;28;20035;-72
2022/04/09 12:35:36;;;;;;;1.20;0.40;;;8.30;79.60;;;;;;5113201;28;20048;-72
2022/04/09 12:38:02;;;;;;;2.70;0.52;;;8.30;79.60;;;;;;5094673;28;20051;-72
2022/04/09 12:40:29;;;;;;;3.20;0.52;;;8.30;79.50;;;;;;5112634;28;20051;-72
2022/04/09 12:42:56;;;;;;;0.47;0.30;;;8.30;79.80;;;;;;5112564;28;20044;-72
2022/04/09 12:45:24;;;;;;;0.75;0.55;;;8.40;79.40;;;;;;5094398;28;20055;-72
2022/04/09 12:47:54;;;;;;;0.50;0.30;;;8.40;79.30;;;;;;5094909;28;20063;-72
2022/04/09 12:50:23;;;;;;;0.60;0.40;;;8.30;79.50;;;;;;5093289;28;20423;-72
2022/04/09 12:52:49;;;;;;;1.80;0.38;;;8.10;79.60;;;;;;5112591;28;20578;-71
2022/04/09 12:55:17;;;;;;;1.95;0.30;;;7.90;79.70;;;;;;5112414;28;20047;-73
2022/04/09 12:57:42;;;;;;;1.35;0.30;;;7.60;80.30;;;;;;5112816;28;20047;-72
2022/04/09 13:00:09;;;;;;;1.58;0.30;;;7.40;81.00;;;;;;5112207;28;20043;-71